Time;durP1;ratioP1;P1;durP2;ratioP2;P2;SDS_P1;SDS_P2;PMS_P1;PMS_P2;Temp;Humidity;BMP_temperature;BMP_pressure;BME280_temperature;BME280_humidity;BME280_pressure;Samples;Min_cycle;Max_cycle;Signal;HPM_P1;HPM_P2
2023/12/29 00:00:00;;;;;;;4.90;2.70;;;10.40;99.90;;;;;;4979364;28;20497;-65
2023/12/29 00:02:28;;;;;;;6.70;2.43;;;10.40;99.90;;;;;;4978950;28;20471;-64
2023/12/29 00:04:56;;;;;;;4.83;2.37;;;10.40;99.90;;;;;;4980774;28;21020;-63
2023/12/29 00:07:26;;;;;;;6.30;2.57;;;10.40;99.90;;;;;;4977368;28;21057;-64
2023/12/29 00:09:54;;;;;;;6.63;2.60;;;10.30;99.90;;;;;;4978980;28;20488;-63
2023/12/29 00:12:22;;;;;;;6.20;2.90;;;10.20;99.90;;;;;;4979995;28;20861;-64
2023/12/29 00:14:50;;;;;;;5.50;2.30;;;10.10;99.90;;;;;;4983471;28;20477;-63
2023/12/29 00:17:18;;;;;;;4.67;2.50;;;10.10;99.90;;;;;;4983020;28;20485;-63
2023/12/29 00:19:46;;;;;;;6.80;2.93;;;10.00;99.90;;;;;;4983156;28;20577;-63
2023/12/29 00:22:14;;;;;;;8.03;2.87;;;9.90;99.90;;;;;;4983343;28;20470;-63
2023/12/29 00:24:43;;;;;;;4.23;2.73;;;9.90;99.90;;;;;;4983671;28;20556;-63
2023/12/29 00:27:12;;;;;;;4.83;2.30;;;9.80;99.90;;;;;;4980632;28;20587;-63
2023/12/29 00:29:40;;;;;;;3.67;2.40;;;9.80;99.90;;;;;;4982601;28;20517;-63
2023/12/29 00:32:08;;;;;;;3.17;2.87;;;9.70;99.90;;;;;;4984349;28;20515;-63
2023/12/29 00:34:37;;;;;;;8.43;2.90;;;9.60;99.90;;;;;;4983421;28;20473;-62
2023/12/29 00:37:06;;;;;;;4.40;2.80;;;9.60;99.90;;;;;;4983151;28;20508;-62
2023/12/29 00:39:38;;;;;;;5.10;3.20;;;9.60;99.90;;;;;;4983419;28;20466;-63
2023/12/29 00:42:08;;;;;;;7.03;3.00;;;9.60;99.90;;;;;;4982657;28;20473;-63
2023/12/29 00:44:36;;;;;;;3.80;2.97;;;9.60;99.90;;;;;;4984005;28;20913;-63
2023/12/29 00:47:04;;;;;;;5.00;2.70;;;9.60;99.90;;;;;;4980676;28;20497;-63
2023/12/29 00:49:32;;;;;;;4.37;2.83;;;9.50;99.90;;;;;;4982099;28;20496;-63
2023/12/29 00:52:02;;;;;;;7.63;3.30;;;9.60;99.90;;;;;;4983975;28;20485;-63
2023/12/29 00:54:30;;;;;;;4.03;3.00;;;9.60;99.90;;;;;;4982302;28;20501;-63
2023/12/29 00:56:59;;;;;;;6.13;4.10;;;9.60;99.90;;;;;;4981840;28;21047;-63
2023/12/29 00:59:28;;;;;;;9.10;3.33;;;9.50;99.90;;;;;;4981848;28;21013;-63
2023/12/29 01:01:56;;;;;;;6.93;4.23;;;9.50;99.90;;;;;;4983725;28;21366;-63
2023/12/29 01:04:24;;;;;;;8.07;2.70;;;9.50;99.90;;;;;;4983457;28;20888;-64
2023/12/29 01:06:53;;;;;;;4.03;2.57;;;9.50;99.90;;;;;;4982567;28;20497;-63
2023/12/29 01:09:22;;;;;;;5.67;3.07;;;9.50;99.90;;;;;;4982908;28;20492;-63
2023/12/29 01:11:50;;;;;;;5.77;2.80;;;9.50;99.90;;;;;;4982699;28;20469;-63
2023/12/29 01:14:18;;;;;;;5.90;3.00;;;9.50;99.90;;;;;;4982065;28;20908;-63
2023/12/29 01:16:47;;;;;;;5.50;3.33;;;9.60;99.90;;;;;;4983118;28;20942;-63
2023/12/29 01:19:15;;;;;;;4.87;3.40;;;9.60;99.90;;;;;;4980986;28;20567;-63
2023/12/29 01:21:43;;;;;;;8.33;3.20;;;9.60;99.90;;;;;;4983882;28;20527;-62
2023/12/29 01:24:11;;;;;;;4.40;2.93;;;9.50;99.90;;;;;;4979513;28;20488;-63
2023/12/29 01:26:42;;;;;;;5.40;2.40;;;9.50;99.90;;;;;;4982010;28;20508;-63
2023/12/29 01:29:11;;;;;;;4.73;3.10;;;9.60;99.90;;;;;;4980777;28;20489;-64
2023/12/29 01:31:39;;;;;;;5.80;3.10;;;9.60;99.90;;;;;;4982453;28;20469;-63
2023/12/29 01:34:08;;;;;;;5.30;3.20;;;9.50;99.90;;;;;;4983562;28;20477;-63
2023/12/29 01:36:36;;;;;;;5.90;3.10;;;9.50;99.90;;;;;;4983144;28;21018;-63
2023/12/29 01:39:04;;;;;;;6.80;3.60;;;9.50;99.90;;;;;;4981774;28;20921;-63
2023/12/29 01:41:32;;;;;;;5.53;2.97;;;9.50;99.90;;;;;;4980238;28;20473;-63
2023/12/29 01:44:20;;;;;;;7.07;3.33;;;9.40;99.90;;;;;;4982732;28;20479;-63
2023/12/29 01:46:50;;;;;;;7.30;3.37;;;9.40;99.90;;;;;;4970097;28;21522;-62
2023/12/29 01:49:21;;;;;;;4.23;3.10;;;9.40;99.90;;;;;;4982193;28;20519;-63
2023/12/29 01:51:51;;;;;;;4.70;3.10;;;9.40;99.90;;;;;;4983217;28;20469;-63
2023/12/29 01:54:21;;;;;;;7.07;3.50;;;9.40;99.90;;;;;;4981555;28;20939;-63
2023/12/29 01:56:50;;;;;;;5.10;2.50;;;9.40;99.90;;;;;;4981773;28;20495;-63
2023/12/29 01:59:20;;;;;;;4.80;2.80;;;9.40;99.90;;;;;;4980931;28;20517;-63
2023/12/29 02:01:55;;;;;;;3.30;3.00;;;9.40;99.90;;;;;;4982490;28;20998;-63
2023/12/29 02:04:25;;;;;;;4.13;2.87;;;9.40;99.90;;;;;;4981571;28;20474;-63
2023/12/29 02:06:54;;;;;;;5.63;2.80;;;9.50;99.90;;;;;;4982647;28;20938;-63
2023/12/29 02:09:22;;;;;;;5.77;2.70;;;9.50;99.90;;;;;;4978587;28;20886;-63
2023/12/29 02:11:50;;;;;;;10.57;4.20;;;9.50;99.90;;;;;;4979189;28;20504;-63
2023/12/29 02:14:20;;;;;;;3.40;3.10;;;9.50;99.90;;;;;;4978580;28;20482;-63
2023/12/29 02:16:57;;;;;;;5.80;3.23;;;9.50;99.90;;;;;;4972873;28;20520;-63
2023/12/29 02:19:43;;;;;;;4.03;2.83;;;9.50;99.90;;;;;;4976498;28;20543;-63
2023/12/29 02:22:13;;;;;;;3.83;2.40;;;9.60;99.90;;;;;;4978297;28;20481;-63
2023/12/29 02:24:45;;;;;;;5.10;2.50;;;9.60;99.90;;;;;;4981024;28;20481;-63
2023/12/29 02:27:21;;;;;;;4.80;2.50;;;9.60;99.90;;;;;;4976466;28;20504;-63
2023/12/29 02:29:57;;;;;;;3.70;2.70;;;9.60;99.90;;;;;;4981322;28;21443;-63
2023/12/29 02:32:28;;;;;;;2.93;2.50;;;9.60;99.90;;;;;;4980851;28;20556;-63
2023/12/29 02:34:57;;;;;;;5.10;2.73;;;9.60;99.90;;;;;;4981364;28;20986;-63
2023/12/29 02:37:27;;;;;;;3.80;2.40;;;9.60;99.90;;;;;;4979742;28;20489;-63
2023/12/29 02:39:58;;;;;;;4.43;2.77;;;9.60;99.90;;;;;;4979437;28;20489;-63
2023/12/29 02:42:26;;;;;;;4.20;2.70;;;9.70;99.90;;;;;;4981659;28;21036;-63
2023/12/29 02:44:54;;;;;;;4.40;2.70;;;9.70;99.90;;;;;;4979751;28;20568;-63
2023/12/29 02:47:22;;;;;;;2.30;2.10;;;9.60;99.90;;;;;;4978706;28;20525;-63
2023/12/29 02:49:50;;;;;;;3.40;2.20;;;9.70;99.90;;;;;;4979130;28;20480;-63
2023/12/29 02:52:19;;;;;;;4.00;2.50;;;9.70;99.90;;;;;;4980191;28;20886;-63
2023/12/29 02:54:47;;;;;;;2.93;2.63;;;9.70;99.90;;;;;;4978764;28;21045;-62
2023/12/29 02:57:16;;;;;;;5.40;2.97;;;9.70;99.90;;;;;;4980314;28;20601;-63
2023/12/29 02:59:44;;;;;;;4.43;2.40;;;9.70;99.90;;;;;;4980839;28;21009;-63
2023/12/29 03:02:12;;;;;;;5.83;2.97;;;9.70;99.90;;;;;;4981880;28;20966;-63
2023/12/29 03:04:40;;;;;;;3.73;1.90;;;9.70;99.90;;;;;;4979011;28;20568;-62
2023/12/29 03:07:08;;;;;;;6.47;2.20;;;9.70;99.90;;;;;;4980040;28;20928;-63
2023/12/29 03:09:37;;;;;;;5.60;1.80;;;9.70;99.90;;;;;;4979365;28;20845;-62
2023/12/29 03:12:06;;;;;;;3.83;2.10;;;9.70;99.90;;;;;;4981077;28;20469;-64
2023/12/29 03:14:35;;;;;;;4.60;2.10;;;9.70;99.90;;;;;;4979006;28;20478;-63
2023/12/29 03:17:03;;;;;;;5.23;1.80;;;9.80;99.90;;;;;;4981339;28;20493;-63
2023/12/29 03:19:31;;;;;;;3.77;1.87;;;9.80;99.90;;;;;;4980319;28;20918;-63
2023/12/29 03:21:59;;;;;;;2.00;1.70;;;9.80;99.90;;;;;;4979935;28;21059;-63
2023/12/29 03:24:27;;;;;;;2.00;1.50;;;9.80;99.90;;;;;;4979114;28;20497;-63
2023/12/29 03:26:55;;;;;;;3.97;1.40;;;9.80;99.90;;;;;;4978868;28;20550;-63
2023/12/29 03:29:23;;;;;;;5.23;1.73;;;9.80;99.90;;;;;;4978720;28;20581;-63
2023/12/29 03:31:53;;;;;;;2.63;1.50;;;9.80;99.90;;;;;;4980778;28;20855;-63
2023/12/29 03:34:21;;;;;;;1.93;1.57;;;9.80;99.90;;;;;;4979302;28;20478;-62
2023/12/29 03:36:49;;;;;;;5.23;1.30;;;9.80;99.90;;;;;;4981671;28;20568;-63
2023/12/29 03:39:17;;;;;;;6.57;2.13;;;9.70;99.90;;;;;;4979285;28;20477;-63
2023/12/29 03:41:45;;;;;;;2.40;1.23;;;9.70;99.90;;;;;;4979391;28;20469;-64
2023/12/29 03:44:13;;;;;;;3.80;1.50;;;9.70;99.90;;;;;;4979637;28;21040;-63
2023/12/29 03:46:41;;;;;;;3.20;1.43;;;9.70;99.90;;;;;;4977901;28;21088;-63
2023/12/29 03:49:11;;;;;;;3.30;1.70;;;9.60;99.90;;;;;;4979368;28;21026;-63
2023/12/29 03:51:39;;;;;;;6.27;1.90;;;9.60;99.90;;;;;;4979072;28;20962;-63
2023/12/29 03:54:07;;;;;;;3.10;1.50;;;9.60;99.90;;;;;;4976392;28;20565;-63
2023/12/29 03:56:35;;;;;;;2.83;1.43;;;9.60;99.90;;;;;;4977486;28;20568;-63
2023/12/29 03:59:03;;;;;;;2.03;1.40;;;9.60;99.90;;;;;;4980042;28;20485;-63
2023/12/29 04:01:35;;;;;;;1.63;1.03;;;9.60;99.90;;;;;;4980810;28;20553;-63
2023/12/29 04:04:03;;;;;;;2.63;1.40;;;9.60;99.90;;;;;;4976644;28;20480;-63
2023/12/29 04:06:32;;;;;;;2.97;1.70;;;9.60;99.90;;;;;;4980280;28;20588;-63
2023/12/29 04:09:00;;;;;;;3.17;1.60;;;9.60;99.90;;;;;;4978549;28;20492;-63
2023/12/29 04:11:28;;;;;;;4.80;1.90;;;9.60;99.90;;;;;;4979897;28;21051;-63
2023/12/29 04:13:56;;;;;;;2.00;1.80;;;9.60;99.90;;;;;;4980555;28;20481;-63
2023/12/29 04:16:25;;;;;;;2.30;1.70;;;9.60;99.90;;;;;;4980055;28;20968;-63
2023/12/29 04:18:53;;;;;;;3.97;1.70;;;9.50;99.90;;;;;;4979010;28;20585;-63
2023/12/29 04:21:21;;;;;;;2.33;1.30;;;9.50;99.90;;;;;;4979334;28;20472;-63
2023/12/29 04:23:50;;;;;;;3.10;1.17;;;9.50;99.90;;;;;;4978607;28;20561;-63
2023/12/29 04:26:18;;;;;;;2.77;1.17;;;9.40;99.90;;;;;;4977506;28;20980;-63
2023/12/29 04:28:46;;;;;;;2.30;0.87;;;9.20;99.90;;;;;;4979397;28;20573;-63
2023/12/29 04:31:14;;;;;;;2.20;0.90;;;9.00;99.90;;;;;;4979411;28;20533;-65
2023/12/29 04:33:42;;;;;;;1.80;1.10;;;8.80;99.90;;;;;;4980307;28;20508;-65
2023/12/29 04:36:10;;;;;;;1.27;0.93;;;8.70;99.90;;;;;;4978895;28;20477;-65
2023/12/29 04:38:39;;;;;;;1.37;0.70;;;8.50;99.90;;;;;;4978618;28;20576;-65
2023/12/29 04:41:09;;;;;;;5.07;1.13;;;8.40;99.90;;;;;;4979386;28;20926;-63
2023/12/29 04:43:37;;;;;;;1.30;0.90;;;8.30;99.90;;;;;;4977918;28;21045;-63
2023/12/29 04:46:05;;;;;;;2.73;0.80;;;8.20;99.90;;;;;;4977343;28;20501;-62
2023/12/29 04:48:33;;;;;;;1.57;0.80;;;8.20;99.90;;;;;;4979559;28;20512;-63
2023/12/29 04:51:01;;;;;;;2.80;1.30;;;8.10;99.90;;;;;;4979837;28;20497;-63
2023/12/29 04:53:29;;;;;;;2.23;0.70;;;8.10;99.90;;;;;;4980712;28;20477;-65
2023/12/29 04:55:57;;;;;;;1.50;0.70;;;8.00;99.90;;;;;;4977222;28;20548;-63
2023/12/29 04:58:26;;;;;;;1.97;0.90;;;8.00;99.90;;;;;;4979481;28;20556;-65
2023/12/29 05:00:54;;;;;;;1.50;0.90;;;7.90;99.90;;;;;;4981332;28;20580;-65
2023/12/29 05:03:22;;;;;;;0.83;0.70;;;7.90;99.90;;;;;;4983384;28;20473;-63
2023/12/29 05:05:50;;;;;;;1.40;1.10;;;7.90;99.90;;;;;;4982589;28;20477;-63
2023/12/29 05:08:18;;;;;;;2.93;0.97;;;7.80;99.90;;;;;;4981918;28;20495;-63
2023/12/29 05:10:46;;;;;;;1.47;0.67;;;7.80;99.90;;;;;;4982155;28;20555;-63
2023/12/29 05:13:14;;;;;;;1.77;1.00;;;7.70;99.90;;;;;;4980194;28;20469;-63
2023/12/29 05:15:44;;;;;;;4.07;1.10;;;7.60;99.90;;;;;;4983145;28;20473;-63
2023/12/29 05:18:12;;;;;;;3.53;0.90;;;7.60;99.90;;;;;;4981721;28;20495;-63
2023/12/29 05:20:40;;;;;;;3.23;1.00;;;7.60;99.90;;;;;;4982363;28;21130;-63
2023/12/29 05:23:08;;;;;;;3.10;1.10;;;7.60;99.90;;;;;;4983465;28;20504;-63
2023/12/29 05:25:36;;;;;;;2.30;1.10;;;7.60;99.90;;;;;;4982355;28;20512;-63
2023/12/29 05:28:05;;;;;;;3.87;1.77;;;7.60;99.90;;;;;;4982539;28;20557;-63
2023/12/29 05:30:33;;;;;;;4.43;1.57;;;7.60;99.90;;;;;;4981910;28;21008;-63
2023/12/29 05:33:02;;;;;;;3.80;1.30;;;7.60;99.90;;;;;;4984034;28;20531;-63
2023/12/29 05:35:30;;;;;;;2.47;1.13;;;7.60;99.90;;;;;;4981275;28;20556;-63
2023/12/29 05:37:58;;;;;;;2.07;1.10;;;7.60;99.90;;;;;;4974096;28;20492;-63
2023/12/29 05:40:28;;;;;;;4.70;1.50;;;7.60;99.90;;;;;;4981741;28;20924;-63
2023/12/29 05:42:56;;;;;;;2.00;1.10;;;7.60;99.90;;;;;;4982467;28;20473;-63
2023/12/29 05:45:24;;;;;;;1.83;1.00;;;7.60;99.90;;;;;;4981636;28;20531;-63
2023/12/29 05:47:52;;;;;;;2.97;1.07;;;7.60;99.90;;;;;;4981563;28;21091;-63
2023/12/29 05:50:22;;;;;;;2.50;1.20;;;7.60;99.90;;;;;;4981208;28;20856;-63
2023/12/29 05:52:51;;;;;;;3.17;1.00;;;7.60;99.90;;;;;;4983341;28;20496;-63
2023/12/29 05:55:20;;;;;;;4.50;1.30;;;7.70;99.90;;;;;;4980815;28;20508;-63
2023/12/29 05:57:48;;;;;;;3.33;1.37;;;7.70;99.90;;;;;;4981774;28;20529;-64
2023/12/29 06:00:17;;;;;;;2.00;1.17;;;7.70;99.90;;;;;;4981945;28;20553;-63
2023/12/29 06:02:45;;;;;;;2.53;1.10;;;7.70;99.90;;;;;;4978498;28;21062;-63
2023/12/29 06:05:13;;;;;;;2.77;1.17;;;7.70;99.90;;;;;;4981792;28;20472;-63
2023/12/29 06:07:43;;;;;;;1.53;1.10;;;7.80;99.90;;;;;;4982895;28;20493;-63
2023/12/29 06:10:12;;;;;;;2.70;1.03;;;7.80;99.90;;;;;;4980843;28;20502;-64
2023/12/29 06:12:40;;;;;;;3.27;1.10;;;7.80;99.90;;;;;;4980316;28;20532;-64
2023/12/29 06:15:09;;;;;;;5.20;1.70;;;7.80;99.90;;;;;;4980433;28;20859;-64
2023/12/29 06:17:41;;;;;;;5.30;1.70;;;7.90;99.90;;;;;;4981855;28;20497;-64
2023/12/29 06:20:11;;;;;;;3.43;1.47;;;7.90;99.90;;;;;;4981977;28;20512;-64
2023/12/29 06:22:42;;;;;;;6.30;1.60;;;7.90;99.90;;;;;;4980763;28;20560;-63
2023/12/29 06:25:11;;;;;;;9.10;2.73;;;8.00;99.90;;;;;;4980866;28;20480;-64
2023/12/29 06:27:40;;;;;;;3.40;1.80;;;8.00;99.90;;;;;;4982023;28;20498;-64
2023/12/29 06:30:10;;;;;;;3.60;1.83;;;8.00;99.90;;;;;;4979240;28;20849;-64
2023/12/29 06:32:39;;;;;;;4.23;1.90;;;8.00;99.90;;;;;;4982261;28;20470;-63
2023/12/29 06:35:09;;;;;;;6.73;2.73;;;8.00;99.90;;;;;;4981604;28;20482;-64
2023/12/29 06:37:39;;;;;;;5.73;2.50;;;8.00;99.90;;;;;;4982215;28;20497;-64
2023/12/29 06:40:09;;;;;;;3.73;2.30;;;8.00;99.90;;;;;;4979559;28;20568;-64
2023/12/29 06:42:37;;;;;;;3.23;2.30;;;8.00;99.90;;;;;;4982059;28;20469;-64
2023/12/29 06:45:08;;;;;;;3.70;2.13;;;8.10;99.90;;;;;;4981681;28;20477;-64
2023/12/29 06:47:36;;;;;;;7.87;2.37;;;8.10;99.90;;;;;;4979656;28;20493;-63
2023/12/29 06:50:06;;;;;;;4.23;2.20;;;8.10;99.90;;;;;;4980049;28;20494;-64
2023/12/29 06:52:35;;;;;;;5.10;2.47;;;8.10;99.90;;;;;;4981570;28;20483;-64
2023/12/29 06:55:03;;;;;;;4.57;2.40;;;8.10;99.90;;;;;;4979588;28;21547;-64
2023/12/29 06:57:32;;;;;;;7.30;2.40;;;8.10;99.90;;;;;;4979622;28;20492;-63
2023/12/29 07:00:01;;;;;;;4.50;2.53;;;8.10;99.90;;;;;;4980485;28;20496;-64
2023/12/29 07:02:29;;;;;;;3.00;1.90;;;8.10;99.90;;;;;;4981927;28;20576;-64
2023/12/29 07:04:57;;;;;;;4.53;2.07;;;8.10;99.90;;;;;;4979489;28;20469;-64
2023/12/29 07:07:25;;;;;;;4.20;2.43;;;8.10;99.90;;;;;;4980327;28;20496;-64
2023/12/29 07:09:53;;;;;;;5.83;2.23;;;8.10;99.90;;;;;;4975832;28;20488;-63
2023/12/29 07:12:21;;;;;;;4.20;2.77;;;8.10;99.90;;;;;;4979922;28;20869;-64
2023/12/29 07:14:51;;;;;;;4.77;2.40;;;8.20;99.90;;;;;;4980562;28;20912;-64
2023/12/29 07:17:21;;;;;;;6.57;2.77;;;8.20;99.90;;;;;;4981392;28;20498;-64
2023/12/29 07:19:49;;;;;;;6.83;2.33;;;8.30;99.90;;;;;;4979241;28;21017;-64
2023/12/29 07:22:17;;;;;;;8.17;2.90;;;8.30;99.90;;;;;;4980988;28;20918;-63
2023/12/29 07:24:46;;;;;;;3.80;2.20;;;8.30;99.90;;;;;;4977716;28;20469;-64
2023/12/29 07:27:14;;;;;;;6.00;2.60;;;8.40;99.90;;;;;;4980964;28;20564;-63
2023/12/29 07:29:42;;;;;;;11.23;3.00;;;8.40;99.90;;;;;;4980493;28;20565;-64
2023/12/29 07:32:11;;;;;;;6.53;2.60;;;8.40;99.90;;;;;;4980481;28;21062;-64
2023/12/29 07:34:39;;;;;;;6.93;2.47;;;8.50;99.90;;;;;;4981243;28;20543;-63
2023/12/29 07:37:08;;;;;;;6.73;2.90;;;8.50;99.90;;;;;;4979097;28;20516;-64
2023/12/29 07:39:37;;;;;;;10.10;2.67;;;8.50;99.90;;;;;;4977862;28;21146;-63
2023/12/29 07:42:05;;;;;;;6.70;3.30;;;8.50;99.90;;;;;;4981838;28;20474;-64
2023/12/29 07:44:34;;;;;;;6.67;2.50;;;8.50;99.90;;;;;;4979405;28;20532;-64
2023/12/29 07:47:02;;;;;;;6.27;2.70;;;8.60;99.90;;;;;;4980594;28;20927;-64
2023/12/29 07:49:31;;;;;;;7.20;2.70;;;8.60;99.90;;;;;;4979266;28;20481;-64
2023/12/29 07:51:59;;;;;;;7.67;2.43;;;8.60;99.90;;;;;;4979727;28;20866;-64
2023/12/29 07:54:28;;;;;;;8.17;3.10;;;8.60;99.90;;;;;;4980160;28;20509;-64
2023/12/29 07:56:56;;;;;;;10.30;3.17;;;8.60;99.90;;;;;;4979692;28;20568;-64
2023/12/29 07:59:23;;;;;;;7.60;2.20;;;8.60;99.90;;;;;;4980276;28;20485;-63
2023/12/29 08:01:52;;;;;;;8.23;2.57;;;8.60;99.90;;;;;;4980345;28;20466;-64
2023/12/29 08:04:20;;;;;;;8.93;2.60;;;8.70;99.90;;;;;;4980705;28;20469;-64
2023/12/29 08:06:49;;;;;;;6.63;2.20;;;8.80;99.90;;;;;;4979542;28;20620;-63
2023/12/29 08:09:17;;;;;;;12.17;3.27;;;8.80;99.90;;;;;;4975999;28;20473;-64
2023/12/29 08:11:45;;;;;;;10.70;2.93;;;8.80;99.90;;;;;;4980393;28;20544;-64
2023/12/29 08:14:13;;;;;;;10.43;2.90;;;8.80;99.90;;;;;;4978615;28;20474;-64
2023/12/29 08:16:41;;;;;;;10.13;2.80;;;8.80;99.90;;;;;;4980446;28;21053;-64
2023/12/29 08:19:10;;;;;;;4.50;2.40;;;8.80;99.90;;;;;;4979025;28;20572;-64
2023/12/29 08:21:39;;;;;;;8.83;2.83;;;8.80;99.90;;;;;;4979102;28;20469;-64
2023/12/29 08:24:08;;;;;;;5.50;2.03;;;8.90;99.90;;;;;;4980985;28;20478;-64
2023/12/29 08:26:44;;;;;;;5.87;2.50;;;8.90;99.90;;;;;;4979557;28;20584;-64
2023/12/29 08:29:12;;;;;;;9.13;2.57;;;8.90;99.90;;;;;;4978625;28;20488;-64
2023/12/29 08:31:40;;;;;;;6.53;2.20;;;8.90;99.90;;;;;;4979300;28;20525;-64
2023/12/29 08:34:09;;;;;;;7.23;2.90;;;8.90;99.90;;;;;;4978834;28;20964;-64
2023/12/29 08:36:37;;;;;;;11.97;2.60;;;8.90;99.90;;;;;;4981238;28;20581;-64
2023/12/29 08:39:05;;;;;;;9.10;3.10;;;8.90;99.90;;;;;;4979811;28;20481;-64
2023/12/29 08:41:35;;;;;;;11.13;2.60;;;8.90;99.90;;;;;;4983507;28;21021;-64
2023/12/29 08:44:03;;;;;;;8.10;2.53;;;9.00;99.90;;;;;;4984388;28;20894;-64
2023/12/29 08:46:31;;;;;;;5.83;2.07;;;9.00;99.90;;;;;;4983975;28;20493;-64
2023/12/29 08:48:59;;;;;;;6.70;2.80;;;9.00;99.90;;;;;;4981493;28;20533;-64
2023/12/29 08:51:27;;;;;;;8.90;2.57;;;9.10;99.90;;;;;;4983228;28;20575;-64
2023/12/29 08:53:55;;;;;;;4.77;2.07;;;9.10;99.90;;;;;;4984282;28;20578;-64
2023/12/29 08:56:23;;;;;;;5.47;2.27;;;9.10;99.90;;;;;;4982819;28;20581;-63
2023/12/29 08:58:55;;;;;;;12.40;2.83;;;9.10;99.90;;;;;;4984067;28;21023;-64
2023/12/29 09:01:23;;;;;;;6.60;2.10;;;9.20;99.90;;;;;;4983776;28;20536;-64
2023/12/29 09:03:51;;;;;;;6.87;2.57;;;9.20;99.90;;;;;;4982339;28;20592;-64
2023/12/29 09:06:20;;;;;;;7.17;2.00;;;9.20;99.90;;;;;;4981435;28;21057;-64
2023/12/29 09:08:48;;;;;;;9.17;2.20;;;9.30;99.90;;;;;;4983723;28;20480;-64
2023/12/29 09:11:16;;;;;;;8.17;2.00;;;9.30;99.90;;;;;;4983155;28;20580;-64
2023/12/29 09:13:44;;;;;;;7.13;2.30;;;9.20;99.90;;;;;;4980958;28;20473;-64
2023/12/29 09:16:13;;;;;;;8.07;2.30;;;9.20;99.90;;;;;;4983197;28;20512;-63
2023/12/29 09:18:42;;;;;;;4.10;2.00;;;9.20;99.90;;;;;;4983059;28;21226;-63
2023/12/29 09:21:10;;;;;;;7.30;2.50;;;9.20;99.90;;;;;;4978620;28;20711;-64
2023/12/29 09:23:38;;;;;;;4.73;1.97;;;9.20;99.90;;;;;;4981951;28;20474;-64
2023/12/29 09:26:06;;;;;;;3.40;2.00;;;9.20;99.90;;;;;;4980178;28;20512;-64
2023/12/29 09:28:34;;;;;;;8.43;2.10;;;9.20;99.90;;;;;;4979543;28;20813;-64
2023/12/29 09:31:02;;;;;;;6.07;2.20;;;9.20;99.90;;;;;;4980238;28;20497;-64
2023/12/29 09:33:32;;;;;;;5.77;2.00;;;9.10;99.90;;;;;;4983177;28;20482;-64
2023/12/29 09:36:00;;;;;;;3.80;2.13;;;9.00;99.90;;;;;;4982694;28;20965;-64
2023/12/29 09:38:28;;;;;;;4.73;2.50;;;9.00;99.90;;;;;;4981571;28;21109;-64
2023/12/29 09:41:02;;;;;;;6.30;2.13;;;8.90;99.90;;;;;;4980095;28;20469;-64
2023/12/29 09:43:31;;;;;;;6.50;2.10;;;8.80;99.90;;;;;;4982574;28;20484;-64
2023/12/29 09:46:00;;;;;;;3.60;1.70;;;8.80;99.90;;;;;;4980376;28;20539;-64
2023/12/29 09:48:28;;;;;;;5.63;2.77;;;8.70;99.90;;;;;;4982685;28;20482;-64
2023/12/29 09:50:58;;;;;;;7.33;2.47;;;8.70;99.90;;;;;;4979531;28;20465;-64
2023/12/29 09:53:27;;;;;;;4.23;2.33;;;8.70;99.90;;;;;;4981319;28;20480;-64
2023/12/29 09:55:58;;;;;;;5.10;2.43;;;8.70;99.90;;;;;;4982227;28;20521;-63
2023/12/29 09:58:26;;;;;;;4.80;2.13;;;8.70;99.90;;;;;;4982359;28;20584;-64
2023/12/29 10:00:54;;;;;;;3.17;1.87;;;8.70;99.90;;;;;;4982169;28;20478;-64
2023/12/29 10:03:22;;;;;;;5.00;2.50;;;8.70;99.90;;;;;;4982231;28;20477;-63
2023/12/29 10:05:56;;;;;;;8.27;3.37;;;8.70;99.90;;;;;;4981421;28;20512;-64
2023/12/29 10:08:26;;;;;;;5.77;2.30;;;8.70;99.90;;;;;;4976095;28;20486;-64
2023/12/29 10:10:58;;;;;;;6.90;2.63;;;8.70;99.90;;;;;;4979764;28;20492;-64
2023/12/29 10:13:28;;;;;;;7.13;3.07;;;8.70;99.90;;;;;;4979186;28;20486;-64
2023/12/29 10:16:02;;;;;;;5.07;2.40;;;8.80;99.90;;;;;;4980093;28;20469;-64
2023/12/29 10:18:38;;;;;;;5.80;1.90;;;8.80;99.90;;;;;;4979953;28;20492;-64
2023/12/29 10:21:14;;;;;;;6.70;2.37;;;8.80;99.90;;;;;;4982812;28;20822;-64
2023/12/29 10:23:58;;;;;;;5.77;2.30;;;8.90;99.90;;;;;;4980116;28;20603;-64
2023/12/29 10:26:27;;;;;;;5.60;2.50;;;8.90;99.90;;;;;;4979374;28;20522;-64
2023/12/29 10:28:56;;;;;;;5.43;1.80;;;8.90;99.90;;;;;;4980467;28;20539;-64
2023/12/29 10:31:24;;;;;;;8.90;2.83;;;8.90;99.90;;;;;;4980291;28;20584;-64
2023/12/29 10:33:52;;;;;;;9.20;2.30;;;8.90;99.90;;;;;;4979070;28;20544;-65
2023/12/29 10:36:21;;;;;;;5.53;2.17;;;9.00;99.90;;;;;;4980139;28;20580;-64
2023/12/29 10:39:07;;;;;;;8.63;3.17;;;9.10;99.90;;;;;;4980359;28;20903;-64
2023/12/29 10:41:35;;;;;;;7.60;2.10;;;9.00;99.90;;;;;;4980573;28;20914;-63
2023/12/29 10:44:08;;;;;;;10.77;3.30;;;9.10;99.90;;;;;;4978224;28;20478;-64
2023/12/29 10:46:36;;;;;;;12.40;2.77;;;9.00;99.90;;;;;;4981726;28;20500;-64
2023/12/29 10:49:09;;;;;;;8.20;2.13;;;9.00;99.90;;;;;;4980398;28;20756;-63
2023/12/29 10:51:38;;;;;;;6.83;1.70;;;9.10;99.90;;;;;;4979595;28;20498;-64
2023/12/29 10:54:07;;;;;;;10.10;2.33;;;9.10;99.90;;;;;;4982238;28;20470;-64
2023/12/29 10:56:35;;;;;;;6.87;2.43;;;9.10;99.90;;;;;;4980076;28;21078;-63
2023/12/29 10:59:04;;;;;;;5.97;2.03;;;9.10;99.90;;;;;;4977126;28;20498;-64
2023/12/29 11:01:34;;;;;;;8.60;2.60;;;9.10;99.90;;;;;;4982130;28;20489;-64
2023/12/29 11:04:04;;;;;;;6.97;2.77;;;9.10;99.90;;;;;;4980337;28;20561;-64
2023/12/29 11:06:41;;;;;;;10.47;2.63;;;9.10;99.90;;;;;;4979513;28;20516;-64
2023/12/29 11:09:11;;;;;;;11.57;3.30;;;9.00;99.90;;;;;;4981110;28;20495;-64
2023/12/29 11:11:40;;;;;;;6.80;2.30;;;9.00;99.90;;;;;;4980631;28;20477;-63
2023/12/29 11:14:12;;;;;;;4.37;2.30;;;9.00;99.90;;;;;;4981395;28;20540;-64
2023/12/29 11:16:42;;;;;;;6.50;2.50;;;9.00;99.90;;;;;;4980158;28;21258;-64
2023/12/29 11:19:13;;;;;;;8.07;2.40;;;9.00;99.90;;;;;;4978777;28;20941;-64
2023/12/29 11:21:43;;;;;;;8.47;2.70;;;8.90;99.90;;;;;;4981438;28;20477;-64
2023/12/29 11:24:13;;;;;;;6.53;3.20;;;8.90;99.90;;;;;;4980689;28;20955;-64
2023/12/29 11:26:50;;;;;;;4.67;2.20;;;8.90;99.90;;;;;;4980283;28;20505;-64
2023/12/29 11:29:18;;;;;;;3.73;2.40;;;8.90;99.90;;;;;;4981132;28;20489;-64
2023/12/29 11:31:49;;;;;;;7.80;2.73;;;8.90;99.90;;;;;;4979972;28;21016;-64
2023/12/29 11:34:22;;;;;;;7.23;2.83;;;8.90;99.90;;;;;;4978346;28;20529;-63
2023/12/29 11:36:52;;;;;;;7.73;2.97;;;8.90;99.90;;;;;;4981454;28;20493;-64
2023/12/29 11:39:29;;;;;;;7.57;2.60;;;8.90;99.90;;;;;;4977303;28;20544;-63
2023/12/29 11:42:04;;;;;;;6.40;2.30;;;8.90;99.90;;;;;;4981574;28;20583;-64
2023/12/29 11:44:33;;;;;;;6.27;2.43;;;8.90;99.90;;;;;;4980912;28;20523;-63
2023/12/29 11:47:02;;;;;;;6.20;2.23;;;8.90;99.90;;;;;;4980868;28;20507;-63
2023/12/29 11:50:00;;;;;;;5.60;3.00;;;8.90;99.90;;;;;;4977035;28;20568;-63
2023/12/29 11:52:35;;;;;;;4.30;1.97;;;9.00;99.90;;;;;;4980231;28;20505;-63
2023/12/29 11:55:11;;;;;;;6.20;2.57;;;9.00;99.90;;;;;;4981038;28;20472;-64
2023/12/29 11:57:40;;;;;;;2.30;1.90;;;9.10;99.90;;;;;;4980757;28;20892;-64
2023/12/29 12:00:09;;;;;;;10.77;2.70;;;9.10;99.90;;;;;;4978495;28;20488;-63
2023/12/29 12:02:38;;;;;;;3.40;2.37;;;9.10;99.90;;;;;;4979600;28;20485;-63
2023/12/29 12:05:07;;;;;;;2.77;2.10;;;9.10;99.90;;;;;;4980230;28;20477;-64
2023/12/29 12:08:01;;;;;;;6.77;2.00;;;9.10;99.90;;;;;;4978423;28;20525;-63
2023/12/29 12:10:38;;;;;;;3.17;2.10;;;9.20;99.90;;;;;;4980661;28;20472;-64
2023/12/29 12:13:06;;;;;;;5.63;1.90;;;9.20;99.90;;;;;;4983569;28;21009;-64
2023/12/29 12:15:35;;;;;;;4.97;2.23;;;9.30;99.90;;;;;;4981304;28;20560;-63
2023/12/29 12:18:07;;;;;;;5.83;2.27;;;9.40;99.90;;;;;;4981937;28;20469;-63
2023/12/29 12:20:36;;;;;;;5.73;2.27;;;9.40;99.90;;;;;;4984408;28;20485;-63
2023/12/29 12:23:11;;;;;;;3.07;2.00;;;9.50;99.90;;;;;;4983710;28;20472;-63
2023/12/29 12:25:41;;;;;;;4.77;2.10;;;9.50;99.90;;;;;;4980715;28;21065;-63
2023/12/29 12:28:11;;;;;;;2.03;1.80;;;9.50;99.90;;;;;;4983634;28;20569;-63
2023/12/29 12:30:39;;;;;;;5.53;2.10;;;9.70;99.90;;;;;;4984681;28;21551;-63
2023/12/29 12:33:11;;;;;;;3.60;2.10;;;9.80;99.90;;;;;;4981109;28;20485;-63
2023/12/29 12:35:39;;;;;;;4.13;1.90;;;9.90;99.90;;;;;;4983889;28;20989;-63
2023/12/29 12:38:12;;;;;;;5.90;1.87;;;10.00;99.90;;;;;;4981303;28;20538;-63
2023/12/29 12:40:41;;;;;;;5.70;2.20;;;10.10;99.90;;;;;;4981683;28;20887;-63
2023/12/29 12:43:14;;;;;;;4.20;2.20;;;10.20;99.90;;;;;;4983204;28;20541;-63
2023/12/29 12:45:43;;;;;;;6.43;2.00;;;10.20;99.90;;;;;;4984832;28;20594;-63
2023/12/29 12:48:15;;;;;;;5.87;2.53;;;10.20;99.90;;;;;;4982471;28;21009;-64
2023/12/29 12:50:45;;;;;;;4.50;2.53;;;10.20;99.90;;;;;;4982070;28;20474;-63
2023/12/29 12:53:19;;;;;;;5.23;2.20;;;10.10;99.90;;;;;;4982485;28;20488;-64
2023/12/29 12:55:50;;;;;;;4.10;1.80;;;10.00;99.90;;;;;;4981580;28;21260;-64
2023/12/29 12:58:20;;;;;;;5.70;2.00;;;10.00;99.90;;;;;;4982930;28;20495;-64
2023/12/29 13:00:49;;;;;;;4.63;1.93;;;9.90;99.90;;;;;;4982657;28;20478;-64
2023/12/29 13:03:22;;;;;;;5.60;2.47;;;9.90;99.90;;;;;;4981943;28;20560;-63
2023/12/29 13:05:50;;;;;;;3.80;2.13;;;9.80;99.90;;;;;;4983700;28;20477;-63